METAR v bližini

 

LIPQ - Ronchi Legionari, Italy
Oddaljenost od postaje: JZ 35km
Podatki zajeti: 25/04/2019 20:20
Pretežno oblačno
Pretežno oblačno
 Veter iz smeri J
Veter: J 4 km/h
Temperatura: 16°C
Temp. rosišča: 15°C
Vlažnost: 94%
Tlak: 1018 hPa
Oblačnost: Pretežno oblačno
Vidljivost: 10 km
Podrobnosti o oblakih: Pretežno oblačno 2743 m
2019/04/25 18:20 LIPQ 251820Z 18002KT 9999 BKN090 16/15 Q1018
LIVT - Trieste, Italy
Oddaljenost od postaje: J 49km
Podatki zajeti: 25/04/2019 19:55
Meglice, Pretežno oblačno
Meglice, Pretežno oblačno
 Veter iz smeri calm
Veter: Tišina
Temperatura: 16°C
Temp. rosišča: 14°C
Vlažnost: 88%
Tlak: 1018 hPa
Stanje: Meglice
Oblačnost: Pretežno oblačno
Vidljivost: 4 km
Podrobnosti o oblakih: Pretežno oblačno 610 m
2019/04/25 17:55 LIVT 251755Z 00000KT 4000 BR BKN020 16/14 Q1018 RMK OVC SCT060 QUK 1 QUL 0 VIS MAR 4 KM VIS MIN 4000
 
LIVO - Tarvisio, Italy
Oddaljenost od postaje: SSZ 49km
Podatki zajeti: 25/04/2019 19:55
Pretežno oblačno
Pretežno oblačno
 Veter iz smeri SZ
Veter: SZ 9 km/h
Temperatura: 14°C
Temp. rosišča: 7°C
Vlažnost: 63%
Tlak: 1017 hPa
Oblačnost: Pretežno oblačno
Vidljivost: 10 km
Podrobnosti o oblakih: Pretežno oblačno 762 m
2019/04/25 17:55 LIVO 251755Z 31005KT 9999 BKN025 14/07 Q1017 RMK BKN VIS MIN 9999
LIPI - Rivolto (it-Afb), Italy
Oddaljenost od postaje: ZJZ 57km
Podatki zajeti: 24/04/2019 16:55
Ni posodobljen
Pretežno oblačno
Pretežno oblačno
 Veter iz smeri spremenljiv
Veter: spremenljiv 0 km/h
Temperatura: 18°C
Temp. rosišča: 14°C
Vlažnost: 78%
Tlak: 1015 hPa
Oblačnost: Pretežno oblačno
Vidljivost: 8 km
Podrobnosti o oblakih: Rahlo oblačno 610 m
Pretežno oblačno 2134 m
2019/04/24 14:55 LIPI 241455Z /////KT 8000 FEW020 BKN070 18/14 Q1015 RMK BKN VIS MIN 8000 WIND THR06 18009KT WIND THR24 20011KT BLU
 
LJLJ - Ljubljana/Brnik, Slovenia
Oddaljenost od postaje: VSV 59km
Podatki zajeti: 25/04/2019 20:30
Pretežno oblačno
Pretežno oblačno
 Veter iz smeri Z
Veter: Z 9 km/h
Temperatura: 16°C
Temp. rosišča: 10°C
Vlažnost: 68%
Tlak: 1018 hPa
Oblačnost: Pretežno oblačno
Vidljivost: 10 km
Podrobnosti o oblakih: Rahlo oblačno 1707 m
Pretežno oblačno 6096 m
2019/04/25 18:30 LJLJ 251830Z 28005KT 9999 FEW056 BKN200 16/10 Q1018 NOSIG
LJPZ - Portoroz, Slovenia
Oddaljenost od postaje: J 68km
Podatki zajeti: 25/04/2019 20:30
Pretežno oblačno
Pretežno oblačno
 Veter iz smeri ZSZ
Veter: ZSZ 7 km/h
Temperatura: 16°C
Temp. rosišča: 14°C
Vlažnost: 88%
Tlak: 1018 hPa
Oblačnost: Pretežno oblačno
Vidljivost: 6 km
Podrobnosti o oblakih: Delno oblačno 762 m
Pretežno oblačno 3048 m
2019/04/25 18:30 LJPZ 251830Z 29004KT 250V310 6000 SCT025 BKN100 16/14 Q1018
 
LOWK - Klagenfurt(Civ/M, Austria
Oddaljenost od postaje: SV 78km
Podatki zajeti: 25/04/2019 20:20
Delno oblačno
Delno oblačno
 Veter iz smeri Z
Veter: Z 9 km/h
Temperatura: 18°C
Temp. rosišča: 6°C
Vlažnost: 46%
Tlak: 1017 hPa
Oblačnost: Delno oblačno
Vidljivost: 10 km
Podrobnosti o oblakih: Rahlo oblačno 2438 m
Delno oblačno 2743 m
2019/04/25 18:20 LOWK 251820Z AUTO 28005KT 9999 FEW080 SCT090 18/06 Q1017 NOSIG
LIYW - Aviano (usaf), Italy
Oddaljenost od postaje: Z 86km
Podatki zajeti: 20/10/2015 15:58
Ni posodobljen
Jasno
Jasno
 Veter iz smeri JJZ
Veter: JJZ 6 km/h
Temperatura: 17°C
Temp. rosišča: 3°C
Vlažnost: 39%
Tlak: 1016.3 hPa
Oblačnost: Jasno
Vidljivost: 10 km
2015/10/20 13:58 LIYW 201358Z AUTO 21003KT 9999 CLR 17/03 A3001 RMK AO2 SLP167 T01660029
 
LIPA - Aviano (it/Us-Af, Italy
Oddaljenost od postaje: Z 89km
Podatki zajeti: 24/04/2019 21:55
Ni posodobljen
Pretežno oblačno
Pretežno oblačno
 Veter iz smeri SV
Veter: SV 7 km/h
Temperatura: 14°C
Temp. rosišča: 12°C
Vlažnost: 88%
Tlak: 1017 hPa
Oblačnost: Pretežno oblačno
Vidljivost: 10 km
Podrobnosti o oblakih: Rahlo oblačno 914 m
Pretežno oblačno 1219 m
2019/04/24 19:55 LIPA 241955Z 05004KT 9999 FEW030 BKN040 14/12 Q1017 RMK BKN VIS MIN 8000NE WIND THR05 04004KT WIND THR23 05003KT A3004 BLU
LDRI - Rijeka/Omisalj, Croatia
Oddaljenost od postaje: JV 115km
Podatki zajeti: 25/04/2019 20:30
Delno oblačno
Delno oblačno
 Veter iz smeri spremenljiv
Veter: spremenljiv 4 km/h
Temperatura: 16°C
Temp. rosišča: 15°C
Vlažnost: 94%
Tlak: 1019 hPa
Oblačnost: Delno oblačno
Vidljivost: 10 km
Podrobnosti o oblakih: Delno oblačno 914 m
2019/04/25 18:30 LDRI 251830Z VRB02KT 9999 SCT030 16/15 Q1019
 
LIPZ - Venezia/Tessera, Italy
Oddaljenost od postaje: ZJZ 127km
Podatki zajeti: 25/04/2019 20:20
Pretežno oblačno
Pretežno oblačno
 Veter iz smeri VSV
Veter: VSV 11 km/h
Temperatura: 16°C
Temp. rosišča: 15°C
Vlažnost: 94%
Tlak: 1017 hPa
Oblačnost: Pretežno oblačno
Vidljivost: 9 km
Podrobnosti o oblakih: Delno oblačno 213 m
Pretežno oblačno 1524 m
2019/04/25 18:20 LIPZ 251820Z 07006KT 9000 SCT007 BKN050 16/15 Q1017 NOSIG
LDPL - Pula, Croatia
Oddaljenost od postaje: J 133km
Podatki zajeti: 25/04/2019 20:30
Rahlo oblačno
Rahlo oblačno
 Veter iz smeri V
Veter: V 15 km/h
Temperatura: 14°C
Temp. rosišča: 13°C
Vlažnost: 94%
Tlak: 1018 hPa
Oblačnost: Rahlo oblačno
Vidljivost: 6 km
Podrobnosti o oblakih: Rahlo oblačno 91 m
2019/04/25 18:30 LDPL 251830Z 09008KT 6000 FEW003 14/13 Q1018 TEMPO BKN005
 
LIPS - Istrana (it-Afb), Italy
Oddaljenost od postaje: ZJZ 136km
Podatki zajeti: 25/04/2019 19:55
Pretežno oblačno
Pretežno oblačno
 Veter iz smeri V
Veter: V 6 km/h
Temperatura: 18°C
Temp. rosišča: 17°C
Vlažnost: 94%
Tlak: 1018 hPa
Oblačnost: Pretežno oblačno
Vidljivost: 8 km
Podrobnosti o oblakih: Delno oblačno 914 m
Pretežno oblačno 2134 m
2019/04/25 17:55 LIPS 251755Z 08003KT 8000 SCT030 BKN070 18/17 Q1018 RMK OVC VIS MIN 8000 WIND THR26 06003KT WIND THR08 06003KT BLU
LIVD - Dobbiaco, Italy
Oddaljenost od postaje: ZSZ 137km
Podatki zajeti: 25/04/2019 19:55

 
2019/04/25 17:55 LIVD 251755Z ///02KT 9999 -RA NSC 11/08 Q1021 RMK OVC OVC220 VIS MIN 9999
 
LJCE - Cerklje, Slovenia
Oddaljenost od postaje: V 139km
Podatki zajeti: 25/04/2019 20:30
Jasno
Jasno
 Veter iz smeri ZJZ
Veter: ZJZ 19 km/h
Temperatura: 19°C
Temp. rosišča: 10°C
Vlažnost: 56%
Tlak: 1017 hPa
Stanje: Jasno
Vidljivost: večja od 10 km
2019/04/25 18:30 LJCE 251830Z 25010KT CAVOK 19/10 Q1017 RMK BLU
LOXZ - Zeltweg (mil), Austria
Oddaljenost od postaje: SSV 147km
Podatki zajeti: 25/04/2019 19:50
Pretežno oblačno
Pretežno oblačno
 Veter iz smeri JZ
Veter: JZ 13 km/h
Temperatura: 18°C
Temp. rosišča: 4°C
Vlažnost: 40%
Tlak: 1015 hPa
Oblačnost: Pretežno oblačno
Podrobnosti o oblakih: Rahlo oblačno 1829 m
Pretežno oblačno 9144 m
2019/04/25 17:50 LOXZ 251750Z 22007KT 30KM FEW060SC BKN300CI 18/04 Q1015 NOSIG